Time;durP1;ratioP1;P1;durP2;ratioP2;P2;SDS_P1;SDS_P2;PMS_P1;PMS_P2;Temp;Humidity;BMP_temperature;BMP_pressure;BME280_temperature;BME280_humidity;BME280_pressure;Samples;Min_cycle;Max_cycle;Signal;HPM_P1;HPM_P2
2022/05/07 00:00:38;;;;;;;25.70;19.23;;;;;;;;;;5039655;28;20037;-60
2022/05/07 00:03:05;;;;;;;21.85;18.38;;;;;;;;;;5027242;28;20049;-60
2022/05/07 00:05:31;;;;;;;25.50;19.40;;;;;;;;;;5044134;28;20441;-61
2022/05/07 00:07:57;;;;;;;22.35;18.48;;;;;;;;;;5043853;28;20523;-60
2022/05/07 00:10:23;;;;;;;26.50;20.75;;;;;;;;;;5008828;28;20045;-61
2022/05/07 00:12:50;;;;;;;24.42;20.25;;;;;;;;;;5021883;28;20048;-61
2022/05/07 00:15:16;;;;;;;23.55;19.40;;;;;;;;;;5046783;28;20029;-60
2022/05/07 00:20:27;;;;;;;26.15;20.25;;;;;;;;;;5036064;28;20478;-60
2022/05/07 00:22:53;;;;;;;23.85;19.70;;;;;;;;;;5033569;28;20041;-61
2022/05/07 00:25:19;;;;;;;26.23;19.90;;;;;;;;;;5039496;28;20116;-60
2022/05/07 00:27:46;;;;;;;23.40;19.10;;;;;;;;;;5042349;28;20037;-61
2022/05/07 00:30:12;;;;;;;23.88;19.80;;;;;;;;;;5035822;28;20032;-61
2022/05/07 00:32:38;;;;;;;22.67;19.10;;;;;;;;;;5024932;28;20481;-61
2022/05/07 00:35:04;;;;;;;22.88;19.40;;;;;;;;;;5041683;28;20083;-61
2022/05/07 00:37:31;;;;;;;27.35;20.10;;;;;;;;;;5019379;28;20110;-61
2022/05/07 00:39:57;;;;;;;25.17;19.45;;;;;;;;;;5040653;28;20081;-61
2022/05/07 00:42:23;;;;;;;20.98;18.23;;;;;;;;;;5034790;28;20049;-60
2022/05/07 00:44:50;;;;;;;22.05;18.77;;;;;;;;;;5032196;28;20052;-60
2022/05/07 00:47:26;;;;;;;25.27;19.70;;;;;;;;;;5038538;28;20401;-61
2022/05/07 00:51:33;;;;;;;23.15;19.70;;;;;;;;;;5021168;28;20041;-61
2022/05/07 00:52:46;;;;;;;23.63;19.52;;;;;;;;;;5035699;28;20477;-60
2022/05/07 00:55:13;;;;;;;23.13;19.00;;;;;;;;;;5026547;28;20480;-61
2022/05/07 00:57:39;;;;;;;26.10;20.00;;;;;;;;;;5039736;28;20132;-60
2022/05/07 01:00:06;;;;;;;24.08;18.95;;;;;;;;;;5021823;28;20041;-61
2022/05/07 01:02:32;;;;;;;23.60;19.40;;;;;;;;;;5020309;28;20156;-61
2022/05/07 01:04:58;;;;;;;24.55;20.65;;;;;;;;;;5021413;28;20048;-60
2022/05/07 01:07:24;;;;;;;23.95;20.95;;;;;;;;;;5040778;28;20400;-61
2022/05/07 01:09:50;;;;;;;26.45;20.08;;;;;;;;;;5037909;28;20083;-60
2022/05/07 01:12:17;;;;;;;24.52;20.20;;;;;;;;;;5014960;28;20076;-61
2022/05/07 01:14:43;;;;;;;27.35;19.35;;;;;;;;;;5039066;28;20104;-61
2022/05/07 01:17:09;;;;;;;25.75;19.77;;;;;;;;;;5038801;28;20107;-61
2022/05/07 01:19:36;;;;;;;24.30;20.48;;;;;;;;;;5019704;28;20136;-61
2022/05/07 01:22:05;;;;;;;23.20;20.35;;;;;;;;;;5036667;28;20041;-60
2022/05/07 01:24:31;;;;;;;25.60;19.05;;;;;;;;;;5002801;28;20041;-60
2022/05/07 01:26:57;;;;;;;23.48;20.00;;;;;;;;;;5043020;28;20045;-61
2022/05/07 01:29:25;;;;;;;24.27;20.23;;;;;;;;;;5035776;28;20037;-60
2022/05/07 01:31:51;;;;;;;23.23;19.70;;;;;;;;;;5032488;28;20044;-60
2022/05/07 01:34:17;;;;;;;24.52;20.30;;;;;;;;;;5023479;28;20049;-60
2022/05/07 01:36:43;;;;;;;24.23;20.55;;;;;;;;;;5019783;28;20120;-61
2022/05/07 01:39:09;;;;;;;23.83;20.20;;;;;;;;;;5022061;28;20057;-60
2022/05/07 01:41:35;;;;;;;24.33;19.63;;;;;;;;;;5043589;28;20049;-61
2022/05/07 01:44:01;;;;;;;23.33;20.48;;;;;;;;;;5036409;28;20059;-60
2022/05/07 01:49:12;;;;;;;23.63;19.40;;;;;;;;;;5035826;28;20091;-60
2022/05/07 01:51:38;;;;;;;25.48;19.77;;;;;;;;;;5037348;28;20049;-61
2022/05/07 01:54:05;;;;;;;23.45;19.58;;;;;;;;;;5016151;28;20055;-61
2022/05/07 01:56:31;;;;;;;24.13;19.95;;;;;;;;;;5021428;28;20055;-60
2022/05/07 01:58:57;;;;;;;22.70;20.25;;;;;;;;;;5037757;28;20069;-60
2022/05/07 02:01:23;;;;;;;25.42;19.92;;;;;;;;;;5040222;28;20441;-60
2022/05/07 02:03:51;;;;;;;27.90;20.25;;;;;;;;;;5020913;28;20401;-61
2022/05/07 02:06:17;;;;;;;27.00;22.17;;;;;;;;;;5018470;28;20162;-61
2022/05/07 02:08:43;;;;;;;22.83;20.42;;;;;;;;;;5041599;28;20037;-61
2022/05/07 02:11:09;;;;;;;24.23;19.88;;;;;;;;;;5035479;28;20107;-60
2022/05/07 02:13:35;;;;;;;27.38;20.67;;;;;;;;;;5038963;28;20038;-61
2022/05/07 02:16:01;;;;;;;26.60;20.15;;;;;;;;;;5046514;28;20106;-61
2022/05/07 02:18:27;;;;;;;25.70;20.90;;;;;;;;;;5041144;28;20044;-61
2022/05/07 02:20:53;;;;;;;25.83;20.92;;;;;;;;;;5040968;28;20511;-60
2022/05/07 02:23:20;;;;;;;25.95;20.67;;;;;;;;;;5040396;28;20090;-61
2022/05/07 02:25:46;;;;;;;26.63;20.33;;;;;;;;;;5038919;28;20404;-60
2022/05/07 02:28:12;;;;;;;24.90;20.38;;;;;;;;;;5035197;28;20041;-61
2022/05/07 02:30:38;;;;;;;25.17;20.45;;;;;;;;;;5023525;28;20039;-61
2022/05/07 02:33:05;;;;;;;23.80;19.55;;;;;;;;;;5021181;28;20172;-60
2022/05/07 02:35:31;;;;;;;25.98;20.67;;;;;;;;;;5022115;28;20037;-61
2022/05/07 02:37:58;;;;;;;27.50;20.88;;;;;;;;;;5045950;28;20146;-61
2022/05/07 02:40:24;;;;;;;26.48;21.42;;;;;;;;;;5042270;28;20052;-60
2022/05/07 02:42:50;;;;;;;25.20;20.75;;;;;;;;;;5039874;28;20434;-61
2022/05/07 02:45:16;;;;;;;26.25;20.67;;;;;;;;;;5007330;28;20045;-61
2022/05/07 02:47:43;;;;;;;23.88;20.50;;;;;;;;;;5024441;28;20068;-60
2022/05/07 02:50:10;;;;;;;24.90;20.55;;;;;;;;;;5022887;28;20047;-60
2022/05/07 02:52:36;;;;;;;26.92;20.90;;;;;;;;;;5039714;28;20033;-60
2022/05/07 02:55:03;;;;;;;24.63;20.58;;;;;;;;;;5019547;28;20111;-60
2022/05/07 02:57:29;;;;;;;24.63;21.85;;;;;;;;;;5038098;28;20041;-61
2022/05/07 02:59:56;;;;;;;26.90;20.67;;;;;;;;;;5039038;28;20515;-61
2022/05/07 03:02:22;;;;;;;26.15;22.13;;;;;;;;;;5043396;28;20166;-60
2022/05/07 03:04:48;;;;;;;27.42;21.25;;;;;;;;;;5028971;28;20068;-61
2022/05/07 03:07:15;;;;;;;25.92;20.48;;;;;;;;;;5040639;28;20041;-61
2022/05/07 03:09:41;;;;;;;25.30;21.23;;;;;;;;;;5039684;28;20120;-60
2022/05/07 03:12:09;;;;;;;25.45;20.98;;;;;;;;;;5047701;28;20039;-60
2022/05/07 03:14:35;;;;;;;26.88;20.85;;;;;;;;;;5021948;28;20501;-60
2022/05/07 03:17:01;;;;;;;26.08;21.92;;;;;;;;;;5035779;28;20044;-61
2022/05/07 03:19:27;;;;;;;23.70;20.23;;;;;;;;;;5037584;28;20183;-61
2022/05/07 03:21:53;;;;;;;24.38;20.85;;;;;;;;;;5036450;28;20128;-61
2022/05/07 03:24:19;;;;;;;25.52;21.60;;;;;;;;;;5041069;28;20156;-60
2022/05/07 03:26:45;;;;;;;26.90;22.55;;;;;;;;;;5020348;28;20041;-61
2022/05/07 03:29:11;;;;;;;24.35;20.23;;;;;;;;;;5034696;28;20541;-61
2022/05/07 03:31:39;;;;;;;26.27;21.20;;;;;;;;;;5022700;28;20069;-60
2022/05/07 03:34:05;;;;;;;24.58;19.92;;;;;;;;;;5034133;28;20422;-60
2022/05/07 03:36:31;;;;;;;24.98;21.38;;;;;;;;;;5041213;28;20053;-61
2022/05/07 03:38:57;;;;;;;25.92;21.55;;;;;;;;;;5038576;28;20373;-61
2022/05/07 03:41:24;;;;;;;27.73;21.60;;;;;;;;;;5034884;28;20045;-61
2022/05/07 03:43:50;;;;;;;27.23;20.90;;;;;;;;;;5011553;28;20389;-60
2022/05/07 03:46:16;;;;;;;23.92;21.13;;;;;;;;;;5016952;28;20485;-60
2022/05/07 03:48:42;;;;;;;27.23;21.73;;;;;;;;;;5023580;28;20605;-60
2022/05/07 03:51:08;;;;;;;28.83;22.25;;;;;;;;;;5036274;28;20033;-60
2022/05/07 03:53:36;;;;;;;26.35;21.77;;;;;;;;;;5037231;28;20041;-60
2022/05/07 03:56:03;;;;;;;24.13;20.95;;;;;;;;;;5040087;28;20052;-61
2022/05/07 03:58:30;;;;;;;24.45;21.55;;;;;;;;;;5040291;28;20532;-61
2022/05/07 04:00:57;;;;;;;23.45;20.95;;;;;;;;;;5020098;28;20037;-60
2022/05/07 04:03:23;;;;;;;24.83;20.77;;;;;;;;;;5018860;28;20048;-60
2022/05/07 04:05:49;;;;;;;25.23;22.13;;;;;;;;;;5041100;28;20517;-61
2022/05/07 04:08:15;;;;;;;26.77;22.08;;;;;;;;;;5036418;28;20052;-60
2022/05/07 04:10:42;;;;;;;29.15;22.60;;;;;;;;;;5037262;28;20109;-60
2022/05/07 04:13:10;;;;;;;29.50;22.45;;;;;;;;;;5045389;28;20124;-60
2022/05/07 04:15:37;;;;;;;28.58;22.27;;;;;;;;;;5022884;28;20392;-60
2022/05/07 04:18:03;;;;;;;30.92;22.92;;;;;;;;;;5016068;28;20069;-60
2022/05/07 04:20:29;;;;;;;28.73;23.15;;;;;;;;;;5007556;28;20540;-60
2022/05/07 04:22:56;;;;;;;29.95;23.75;;;;;;;;;;5033527;28;20400;-61
2022/05/07 04:25:22;;;;;;;28.08;23.50;;;;;;;;;;4999059;28;20071;-61
2022/05/07 04:27:48;;;;;;;35.65;24.73;;;;;;;;;;5040306;28;20034;-60
2022/05/07 04:30:14;;;;;;;32.58;23.52;;;;;;;;;;5017409;28;20437;-61
2022/05/07 04:32:40;;;;;;;30.27;24.23;;;;;;;;;;5013786;28;20045;-61
2022/05/07 04:35:06;;;;;;;29.17;23.50;;;;;;;;;;5036975;28;20039;-61
2022/05/07 04:37:32;;;;;;;31.33;25.10;;;;;;;;;;5036649;28;20062;-60
2022/05/07 04:39:58;;;;;;;30.48;25.15;;;;;;;;;;5035455;28;20041;-61
2022/05/07 04:42:24;;;;;;;28.95;25.10;;;;;;;;;;5033435;28;20041;-60
2022/05/07 04:44:51;;;;;;;29.00;24.23;;;;;;;;;;5018958;28;20453;-61
2022/05/07 04:47:17;;;;;;;28.00;24.08;;;;;;;;;;5014703;28;20449;-60
2022/05/07 04:49:43;;;;;;;31.77;24.85;;;;;;;;;;5037901;28;20163;-61
2022/05/07 04:52:10;;;;;;;29.02;24.20;;;;;;;;;;5033238;28;20045;-62
2022/05/07 04:54:36;;;;;;;31.65;25.48;;;;;;;;;;5039301;28;20034;-60
2022/05/07 04:57:02;;;;;;;28.02;24.85;;;;;;;;;;5016505;28;20041;-61
2022/05/07 04:59:28;;;;;;;31.30;25.25;;;;;;;;;;5037805;28;20037;-61
2022/05/07 05:01:55;;;;;;;35.05;26.10;;;;;;;;;;5019081;28;20124;-61
2022/05/07 05:04:21;;;;;;;35.42;27.00;;;;;;;;;;5000126;28;20111;-61
2022/05/07 05:06:47;;;;;;;34.35;26.08;;;;;;;;;;5043218;28;20520;-60
2022/05/07 05:09:13;;;;;;;29.45;25.65;;;;;;;;;;5033025;28;20102;-61
2022/05/07 05:11:40;;;;;;;32.80;26.23;;;;;;;;;;5028135;28;20035;-60
2022/05/07 05:16:51;;;;;;;32.35;27.75;;;;;;;;;;5014038;28;20133;-61
2022/05/07 05:19:18;;;;;;;33.78;25.92;;;;;;;;;;5032442;28;20132;-62
2022/05/07 05:21:44;;;;;;;40.25;28.50;;;;;;;;;;5038737;28;20042;-61
2022/05/07 05:24:10;;;;;;;32.95;28.17;;;;;;;;;;4999697;28;20053;-61
2022/05/07 05:26:36;;;;;;;37.83;28.95;;;;;;;;;;5017749;28;20038;-61
2022/05/07 05:29:02;;;;;;;32.80;27.65;;;;;;;;;;5020271;28;20045;-61
2022/05/07 05:31:30;;;;;;;34.95;27.50;;;;;;;;;;5040011;28;20037;-61
2022/05/07 05:33:57;;;;;;;32.67;27.85;;;;;;;;;;5033670;28;20192;-61
2022/05/07 05:36:24;;;;;;;32.55;27.33;;;;;;;;;;5045156;28;20053;-61
2022/05/07 05:38:50;;;;;;;37.05;28.45;;;;;;;;;;5023700;28;20110;-61
2022/05/07 05:41:16;;;;;;;31.85;26.98;;;;;;;;;;5039155;28;20036;-61
2022/05/07 05:43:42;;;;;;;33.13;27.23;;;;;;;;;;5041752;28;20366;-61
2022/05/07 05:46:08;;;;;;;31.13;26.20;;;;;;;;;;5045044;28;20068;-61
2022/05/07 05:48:34;;;;;;;33.00;27.27;;;;;;;;;;5036518;28;20413;-61
2022/05/07 05:51:00;;;;;;;34.03;27.45;;;;;;;;;;5042129;28;20042;-61
2022/05/07 05:53:26;;;;;;;30.98;25.50;;;;;;;;;;5021838;28;20044;-61
2022/05/07 05:55:52;;;;;;;33.75;25.70;;;;;;;;;;5038113;28;20072;-61
2022/05/07 05:58:18;;;;;;;31.65;25.27;;;;;;;;;;5040194;28;20041;-61
2022/05/07 06:00:44;;;;;;;31.48;26.02;;;;;;;;;;5018223;28;20500;-61
2022/05/07 06:03:10;;;;;;;28.98;23.63;;;;;;;;;;5021211;28;20048;-60
2022/05/07 06:05:37;;;;;;;25.92;22.73;;;;;;;;;;5038424;28;20035;-61
2022/05/07 06:08:03;;;;;;;27.48;20.95;;;;;;;;;;5025123;28;20073;-61
2022/05/07 06:10:29;;;;;;;28.95;21.98;;;;;;;;;;5023184;28;20041;-61
2022/05/07 06:12:55;;;;;;;24.52;19.20;;;;;;;;;;5038048;28;20120;-61
2022/05/07 06:15:22;;;;;;;25.27;19.02;;;;;;;;;;5020559;28;20052;-61
2022/05/07 06:17:48;;;;;;;23.98;18.48;;;;;;;;;;5037295;28;20048;-61
2022/05/07 06:20:14;;;;;;;24.88;18.75;;;;;;;;;;5034679;28;20045;-61
2022/05/07 06:22:40;;;;;;;21.70;17.75;;;;;;;;;;5003226;28;20097;-61
2022/05/07 06:27:51;;;;;;;23.60;18.02;;;;;;;;;;5039105;28;20045;-61
2022/05/07 06:30:17;;;;;;;21.77;17.08;;;;;;;;;;5044036;28;20061;-61
2022/05/07 06:32:43;;;;;;;20.98;16.70;;;;;;;;;;5042942;28;20473;-61
2022/05/07 06:35:10;;;;;;;20.40;15.82;;;;;;;;;;5019164;28;20048;-61
2022/05/07 06:37:37;;;;;;;19.08;15.77;;;;;;;;;;5033985;28;20548;-61
2022/05/07 06:40:04;;;;;;;20.08;16.17;;;;;;;;;;5039554;28;20045;-61
2022/05/07 06:42:33;;;;;;;21.38;16.67;;;;;;;;;;5014609;28;20037;-61
2022/05/07 06:44:59;;;;;;;21.00;15.85;;;;;;;;;;5038219;28;20049;-61
2022/05/07 06:47:26;;;;;;;25.15;16.27;;;;;;;;;;5032246;28;20076;-61
2022/05/07 06:49:52;;;;;;;19.48;14.68;;;;;;;;;;5034496;28;20056;-61
2022/05/07 06:52:18;;;;;;;17.95;14.13;;;;;;;;;;5039165;28;20037;-61
2022/05/07 06:54:44;;;;;;;18.98;14.30;;;;;;;;;;5017686;28;20088;-62
2022/05/07 06:57:11;;;;;;;19.25;14.73;;;;;;;;;;5040777;28;20502;-61
2022/05/07 06:59:37;;;;;;;19.25;13.80;;;;;;;;;;5038233;28;20068;-61
2022/05/07 07:02:04;;;;;;;18.10;13.70;;;;;;;;;;5045319;28;20049;-61
2022/05/07 07:04:30;;;;;;;18.85;13.38;;;;;;;;;;5041957;28;20037;-61
2022/05/07 07:06:57;;;;;;;18.85;13.93;;;;;;;;;;5040214;28;20103;-61
2022/05/07 07:09:23;;;;;;;15.90;13.20;;;;;;;;;;5022877;28;20470;-61
2022/05/07 07:11:49;;;;;;;22.88;14.60;;;;;;;;;;5038112;28;20037;-60
2022/05/07 07:14:15;;;;;;;19.02;14.75;;;;;;;;;;5025846;28;20058;-61
2022/05/07 07:16:41;;;;;;;20.00;14.38;;;;;;;;;;5017346;28;20519;-61
2022/05/07 07:19:07;;;;;;;19.10;14.48;;;;;;;;;;5018945;28;20045;-61
2022/05/07 07:21:33;;;;;;;20.05;14.55;;;;;;;;;;5037471;28;20053;-61
2022/05/07 07:23:59;;;;;;;17.60;14.98;;;;;;;;;;5021225;28;20049;-61
2022/05/07 07:26:25;;;;;;;19.73;14.60;;;;;;;;;;5039143;28;20045;-61
2022/05/07 07:28:53;;;;;;;21.55;15.57;;;;;;;;;;5038856;28;20040;-61
2022/05/07 07:31:19;;;;;;;21.60;14.38;;;;;;;;;;5036710;28;20033;-61
2022/05/07 07:33:45;;;;;;;24.08;15.98;;;;;;;;;;5011340;28;20037;-61
2022/05/07 07:36:12;;;;;;;22.58;14.45;;;;;;;;;;5047566;28;20049;-61
2022/05/07 07:38:39;;;;;;;21.38;15.90;;;;;;;;;;5035718;28;20096;-61
2022/05/07 07:41:06;;;;;;;22.90;15.52;;;;;;;;;;5023249;28;20072;-61
2022/05/07 07:43:32;;;;;;;22.85;14.80;;;;;;;;;;5019177;28;20039;-61
2022/05/07 07:48:44;;;;;;;20.38;14.90;;;;;;;;;;5020161;28;20076;-61
2022/05/07 07:51:11;;;;;;;21.77;14.32;;;;;;;;;;5017153;28;20045;-61
2022/05/07 07:53:38;;;;;;;19.80;13.57;;;;;;;;;;5020794;28;20103;-61
2022/05/07 07:56:04;;;;;;;21.38;14.60;;;;;;;;;;5033119;28;20053;-61
2022/05/07 07:58:30;;;;;;;18.58;14.15;;;;;;;;;;5040188;28;20124;-61
2022/05/07 08:00:57;;;;;;;23.50;14.68;;;;;;;;;;5042913;28;20055;-62
2022/05/07 08:03:23;;;;;;;19.98;14.60;;;;;;;;;;5026578;28;20131;-61
2022/05/07 08:05:53;;;;;;;19.40;14.15;;;;;;;;;;5036044;28;20060;-61
2022/05/07 08:13:49;;;;;;;21.05;13.65;;;;;;;;;;5038618;28;20056;-60
2022/05/07 08:16:17;;;;;;;19.02;14.05;;;;;;;;;;5034125;28;20680;-60
2022/05/07 08:18:44;;;;;;;20.13;13.85;;;;;;;;;;5040057;28;20037;-61
2022/05/07 08:21:11;;;;;;;22.75;15.13;;;;;;;;;;5025949;28;20136;-61
2022/05/07 08:23:38;;;;;;;20.90;14.23;;;;;;;;;;5038589;28;20037;-61
2022/05/07 08:26:04;;;;;;;24.88;14.07;;;;;;;;;;5022903;28;20132;-61
2022/05/07 08:28:31;;;;;;;21.30;13.55;;;;;;;;;;5047972;28;20037;-62
2022/05/07 08:30:57;;;;;;;24.38;14.68;;;;;;;;;;5052253;28;20041;-61
2022/05/07 08:33:23;;;;;;;23.55;14.52;;;;;;;;;;5044556;28;20071;-61
2022/05/07 08:35:49;;;;;;;20.95;14.73;;;;;;;;;;5040049;28;20095;-61
2022/05/07 08:38:16;;;;;;;24.63;14.75;;;;;;;;;;5042227;28;20059;-61
2022/05/07 08:40:42;;;;;;;22.27;14.18;;;;;;;;;;5041145;28;20037;-61
2022/05/07 08:43:08;;;;;;;24.23;16.05;;;;;;;;;;5035375;28;20052;-61
2022/05/07 08:45:35;;;;;;;23.63;15.90;;;;;;;;;;5037990;28;20047;-61
2022/05/07 08:48:01;;;;;;;24.60;16.42;;;;;;;;;;5010289;28;20033;-61
2022/05/07 08:50:27;;;;;;;22.35;15.23;;;;;;;;;;5020683;28;20040;-61
2022/05/07 08:52:53;;;;;;;25.10;15.38;;;;;;;;;;5035257;28;20090;-61
2022/05/07 08:55:20;;;;;;;23.08;15.43;;;;;;;;;;5043420;28;20034;-61
2022/05/07 08:57:47;;;;;;;26.10;16.10;;;;;;;;;;5044001;28;20124;-61
2022/05/07 09:00:14;;;;;;;23.35;15.65;;;;;;;;;;5037972;28;20114;-61
2022/05/07 09:02:42;;;;;;;25.75;16.55;;;;;;;;;;5037025;28;20068;-61
2022/05/07 09:05:08;;;;;;;29.27;16.60;;;;;;;;;;5033869;28;20041;-61
2022/05/07 09:07:34;;;;;;;27.35;16.67;;;;;;;;;;5037625;28;20044;-61
2022/05/07 09:10:00;;;;;;;28.95;16.48;;;;;;;;;;5024449;28;20827;-61
2022/05/07 09:12:28;;;;;;;27.17;17.38;;;;;;;;;;5024956;28;20041;-61
2022/05/07 09:15:01;;;;;;;30.67;17.35;;;;;;;;;;5018247;28;20044;-62
2022/05/07 09:17:28;;;;;;;30.98;16.77;;;;;;;;;;5037842;28;20090;-63
2022/05/07 09:19:54;;;;;;;28.55;16.75;;;;;;;;;;5035725;28;20041;-63
2022/05/07 09:22:20;;;;;;;27.27;16.83;;;;;;;;;;5006768;28;20048;-62
2022/05/07 09:24:56;;;;;;;27.95;17.73;;;;;;;;;;5022010;28;20451;-62
2022/05/07 09:27:25;;;;;;;25.77;17.48;;;;;;;;;;5040233;28;20138;-62
2022/05/07 09:30:02;;;;;;;30.25;17.60;;;;;;;;;;5019846;28;20102;-62
2022/05/07 09:32:38;;;;;;;31.58;17.23;;;;;;;;;;5026393;28;20045;-62
2022/05/07 09:38:01;;;;;;;26.60;17.20;;;;;;;;;;5015350;28;20057;-62
2022/05/07 09:40:27;;;;;;;28.20;16.55;;;;;;;;;;5023891;28;20057;-63
2022/05/07 09:43:00;;;;;;;25.10;16.83;;;;;;;;;;5023341;28;20525;-62
2022/05/07 09:45:30;;;;;;;28.38;17.17;;;;;;;;;;5042216;28;20118;-63
2022/05/07 09:47:57;;;;;;;30.95;17.88;;;;;;;;;;5034596;28;20056;-64
2022/05/07 09:50:25;;;;;;;25.73;17.10;;;;;;;;;;5048065;28;20040;-63
2022/05/07 09:58:21;;;;;;;28.75;19.13;;;;;;;;;;5048341;28;20076;-63
2022/05/07 10:00:57;;;;;;;28.10;19.05;;;;;;;;;;5022090;28;20049;-59
2022/05/07 10:03:28;;;;;;;27.15;18.42;;;;;;;;;;5041999;28;20092;-63
2022/05/07 10:06:15;;;;;;;30.92;20.70;;;;;;;;;;5039689;28;20045;-63
2022/05/07 10:09:03;;;;;;;33.28;20.75;;;;;;;;;;5024594;28;20120;-63
2022/05/07 10:11:29;;;;;;;30.65;21.83;;;;;;;;;;5046668;28;20545;-63
2022/05/07 10:13:56;;;;;;;32.63;22.30;;;;;;;;;;5041753;28;20037;-63
2022/05/07 10:16:22;;;;;;;35.92;23.10;;;;;;;;;;5021888;28;20042;-63
2022/05/07 10:18:49;;;;;;;36.25;23.73;;;;;;;;;;5018452;28;20053;-63
2022/05/07 10:21:15;;;;;;;29.85;21.63;;;;;;;;;;5038856;28;20034;-63
2022/05/07 10:24:09;;;;;;;36.90;22.27;;;;;;;;;;5001954;28;20041;-63
2022/05/07 10:26:45;;;;;;;28.95;21.25;;;;;;;;;;5021539;28;20524;-63
2022/05/07 10:29:21;;;;;;;36.22;22.48;;;;;;;;;;5040833;28;20049;-63
2022/05/07 10:31:47;;;;;;;34.78;22.80;;;;;;;;;;5044118;28;20116;-63
2022/05/07 10:34:31;;;;;;;37.50;23.27;;;;;;;;;;5038436;28;20486;-63
2022/05/07 10:37:05;;;;;;;32.28;21.38;;;;;;;;;;5026345;28;20092;-63
2022/05/07 10:39:31;;;;;;;33.40;22.02;;;;;;;;;;5006535;28;20041;-63
2022/05/07 10:41:58;;;;;;;28.88;21.58;;;;;;;;;;5042439;28;20080;-63
2022/05/07 10:44:31;;;;;;;26.48;20.02;;;;;;;;;;5027177;28;20388;-62
2022/05/07 10:47:08;;;;;;;30.67;20.90;;;;;;;;;;5028456;28;20045;-62
2022/05/07 10:49:34;;;;;;;30.17;21.20;;;;;;;;;;5038643;28;20439;-63
2022/05/07 10:52:03;;;;;;;31.13;20.90;;;;;;;;;;5037162;28;20049;-62
2022/05/07 10:54:29;;;;;;;27.23;20.88;;;;;;;;;;5044920;28;20033;-62
2022/05/07 10:56:59;;;;;;;27.05;20.40;;;;;;;;;;5017448;28;20072;-62
2022/05/07 10:59:29;;;;;;;28.55;20.05;;;;;;;;;;5017333;28;20116;-62
2022/05/07 11:02:05;;;;;;;26.65;19.50;;;;;;;;;;5040764;28;20142;-62
2022/05/07 11:04:41;;;;;;;26.90;19.60;;;;;;;;;;5040070;28;20072;-62
2022/05/07 11:07:07;;;;;;;27.23;19.27;;;;;;;;;;5045181;28;20049;-62
2022/05/07 11:09:33;;;;;;;28.00;19.98;;;;;;;;;;5039246;28;20048;-63
2022/05/07 11:11:59;;;;;;;28.15;20.08;;;;;;;;;;5041103;28;20554;-62
2022/05/07 11:14:27;;;;;;;27.10;19.17;;;;;;;;;;5019412;28;20126;-63
2022/05/07 11:16:53;;;;;;;25.52;17.98;;;;;;;;;;5036939;28;20041;-63
2022/05/07 11:19:23;;;;;;;25.38;19.25;;;;;;;;;;5020848;28;20060;-62
2022/05/07 11:21:52;;;;;;;25.13;20.08;;;;;;;;;;5024536;28;20045;-62
2022/05/07 11:24:21;;;;;;;27.88;19.70;;;;;;;;;;5037671;28;20511;-64
2022/05/07 11:27:02;;;;;;;26.88;20.17;;;;;;;;;;5040019;28;20045;-63
2022/05/07 11:29:29;;;;;;;26.75;20.65;;;;;;;;;;5041230;28;20060;-63
2022/05/07 11:31:55;;;;;;;26.13;19.83;;;;;;;;;;5024257;28;20041;-63
2022/05/07 11:34:28;;;;;;;25.00;18.73;;;;;;;;;;5033883;28;20033;-63
2022/05/07 11:36:54;;;;;;;23.05;18.42;;;;;;;;;;5022700;28;20435;-63
2022/05/07 11:39:21;;;;;;;20.80;18.17;;;;;;;;;;5037140;28;20052;-62
2022/05/07 11:41:57;;;;;;;22.15;18.02;;;;;;;;;;5018793;28;20045;-63
2022/05/07 11:47:20;;;;;;;23.88;18.48;;;;;;;;;;5036569;28;20057;-63
2022/05/07 11:49:46;;;;;;;21.95;17.50;;;;;;;;;;5021750;28;20053;-63
2022/05/07 11:52:12;;;;;;;20.38;17.85;;;;;;;;;;5019339;28;20485;-63
2022/05/07 11:54:51;;;;;;;21.92;17.52;;;;;;;;;;5033425;28;20033;-63
2022/05/07 11:57:30;;;;;;;22.48;18.80;;;;;;;;;;5040063;28;20041;-63
2022/05/07 11:59:57;;;;;;;20.15;17.05;;;;;;;;;;5015896;28;20128;-63
2022/05/07 12:02:23;;;;;;;23.92;18.52;;;;;;;;;;5016947;28;20378;-62
2022/05/07 12:05:00;;;;;;;22.10;17.80;;;;;;;;;;5027864;28;20033;-63
2022/05/07 12:07:26;;;;;;;29.23;22.85;;;;;;;;;;5019561;28;20050;-63
2022/05/07 12:09:52;;;;;;;34.85;25.73;;;;;;;;;;5021989;28;20045;-63
2022/05/07 12:12:18;;;;;;;35.22;25.55;;;;;;;;;;5036445;28;20025;-62
2022/05/07 12:14:44;;;;;;;39.30;28.67;;;;;;;;;;5037728;28;20470;-63
2022/05/07 12:19:55;;;;;;;38.72;27.58;;;;;;;;;;5018612;28;20064;-62
2022/05/07 12:30:34;;;;;;;29.98;24.42;;;;;;;;;;5036764;28;20045;-63
2022/05/07 12:33:00;;;;;;;34.53;24.60;;;;;;;;;;5016555;28;20045;-63
2022/05/07 12:35:27;;;;;;;31.20;23.58;;;;;;;;;;5021995;28;20044;-63
2022/05/07 12:37:53;;;;;;;34.50;24.15;;;;;;;;;;5039967;28;20060;-63
2022/05/07 12:40:19;;;;;;;32.58;23.40;;;;;;;;;;5020850;28;20053;-62
2022/05/07 12:42:46;;;;;;;33.40;23.63;;;;;;;;;;5024552;28;20037;-63
2022/05/07 12:45:12;;;;;;;31.90;23.77;;;;;;;;;;5036931;28;20042;-63
2022/05/07 12:47:39;;;;;;;31.58;21.92;;;;;;;;;;5039271;28;20039;-63
2022/05/07 12:50:05;;;;;;;26.60;20.02;;;;;;;;;;5014567;28;20091;-63
2022/05/07 12:52:31;;;;;;;28.17;19.65;;;;;;;;;;5005165;28;20109;-63
2022/05/07 12:54:57;;;;;;;29.02;21.35;;;;;;;;;;5036844;28;20495;-63
2022/05/07 12:57:23;;;;;;;28.65;20.13;;;;;;;;;;5015808;28;20041;-63
2022/05/07 12:59:49;;;;;;;25.88;20.45;;;;;;;;;;5022102;28;20045;-63
2022/05/07 13:02:15;;;;;;;30.42;19.30;;;;;;;;;;5038458;28;20044;-63
2022/05/07 13:04:41;;;;;;;25.42;19.40;;;;;;;;;;5027100;28;20090;-63
2022/05/07 13:07:08;;;;;;;30.77;21.90;;;;;;;;;;5037483;28;20037;-62
2022/05/07 13:09:34;;;;;;;29.50;19.67;;;;;;;;;;5032900;28;20044;-62
2022/05/07 13:12:02;;;;;;;28.90;19.60;;;;;;;;;;5040885;28;20067;-62
2022/05/07 13:14:30;;;;;;;26.90;19.80;;;;;;;;;;5035645;28;20048;-62
2022/05/07 13:16:56;;;;;;;27.60;19.40;;;;;;;;;;5036720;28;20041;-62
2022/05/07 13:19:22;;;;;;;25.33;18.42;;;;;;;;;;5031708;28;20102;-62
2022/05/07 13:21:48;;;;;;;29.45;19.20;;;;;;;;;;5034275;28;20086;-62
2022/05/07 13:24:16;;;;;;;31.70;23.08;;;;;;;;;;5019945;28;20466;-62
2022/05/07 13:26:42;;;;;;;32.38;23.65;;;;;;;;;;5015105;28;20532;-62
2022/05/07 13:29:09;;;;;;;39.72;27.73;;;;;;;;;;5040793;28;20034;-62
2022/05/07 13:31:37;;;;;;;37.92;26.88;;;;;;;;;;5031543;28;20512;-62
2022/05/07 13:34:04;;;;;;;35.85;25.95;;;;;;;;;;5035372;28;20508;-62
2022/05/07 13:36:30;;;;;;;37.13;26.13;;;;;;;;;;5013914;28;20044;-62
2022/05/07 13:38:58;;;;;;;34.00;25.67;;;;;;;;;;5019120;28;20050;-62
2022/05/07 13:41:26;;;;;;;30.58;22.95;;;;;;;;;;5032045;28;20052;-62
2022/05/07 13:43:53;;;;;;;30.83;22.83;;;;;;;;;;5016712;28;20373;-62
2022/05/07 13:46:19;;;;;;;34.38;24.55;;;;;;;;;;5046210;28;20111;-62
2022/05/07 13:48:45;;;;;;;36.60;25.75;;;;;;;;;;5018675;28;20072;-62
2022/05/07 13:51:11;;;;;;;35.67;23.83;;;;;;;;;;5015032;28;20049;-62
2022/05/07 13:53:37;;;;;;;37.03;23.63;;;;;;;;;;5040638;28;20455;-62
2022/05/07 13:56:03;;;;;;;29.10;20.83;;;;;;;;;;5039572;28;20042;-62
2022/05/07 13:58:30;;;;;;;29.75;21.25;;;;;;;;;;5035037;28;20452;-62
2022/05/07 14:00:56;;;;;;;29.33;19.90;;;;;;;;;;5014058;28;20049;-62
2022/05/07 14:03:23;;;;;;;23.25;17.48;;;;;;;;;;5047694;28;20580;-62
2022/05/07 14:05:49;;;;;;;23.02;17.10;;;;;;;;;;5024292;28;20061;-62
2022/05/07 14:18:13;;;;;;;21.42;14.93;;;20.40;99.90;;;;;;5127099;27;1339859;-89
2022/05/07 14:20:38;;;;;;;19.35;13.45;;;20.60;99.90;;;;;;5134292;27;20125;-87
2022/05/07 14:23:06;;;;;;;17.10;12.07;;;20.60;99.90;;;;;;5102181;27;20035;-87
2022/05/07 14:25:34;;;;;;;18.35;14.10;;;20.80;99.90;;;;;;5132935;27;20039;-85
2022/05/07 14:27:59;;;;;;;18.13;12.60;;;20.80;99.90;;;;;;5080638;27;20059;-87
2022/05/07 14:30:25;;;;;;;15.88;12.30;;;20.70;99.90;;;;;;5114262;27;20521;-86
2022/05/07 14:32:51;;;;;;;20.08;13.85;;;20.70;99.90;;;;;;5096715;28;20047;-86
2022/05/07 14:35:16;;;;;;;16.65;12.15;;;20.70;99.90;;;;;;5095967;27;20031;-87
2022/05/07 14:37:42;;;;;;;15.63;11.88;;;20.60;99.90;;;;;;5114691;27;20126;-85
2022/05/07 14:42:53;;;;;;;16.50;10.82;;;20.40;99.90;;;;;;5129510;28;20145;-86
2022/05/07 14:45:20;;;;;;;15.95;9.95;;;20.20;99.90;;;;;;5098175;27;20039;-86
2022/05/07 14:47:46;;;;;;;14.55;10.50;;;20.10;99.90;;;;;;5133126;27;20035;-87
2022/05/07 14:50:11;;;;;;;16.38;10.55;;;20.10;99.90;;;;;;5081117;27;20046;-87
2022/05/07 14:52:37;;;;;;;19.42;9.80;;;20.20;99.90;;;;;;5114023;27;20039;-85
2022/05/07 14:55:03;;;;;;;15.05;10.05;;;20.30;99.90;;;;;;5099470;27;20550;-86
2022/05/07 14:57:29;;;;;;;15.40;10.55;;;20.20;99.90;;;;;;5107883;27;20035;-86
2022/05/07 14:59:56;;;;;;;14.05;9.65;;;20.10;99.90;;;;;;5112108;27;20050;-86
2022/05/07 15:02:21;;;;;;;13.13;8.65;;;20.00;99.90;;;;;;5094663;28;20036;-86
2022/05/07 15:04:47;;;;;;;13.15;9.70;;;20.10;99.90;;;;;;5107825;27;20050;-86